Preview of NWS' New Version of Forecast
This preview is not operational and should not be used for support decisions.

Terminal Aerodrome Forecast (TAF)

Issued by National Weather Service (NWS)

                            
000
FTUS42 KMFL 141132
TAFMIA
TAF
KMIA 141132Z 1412/1518 20004KT P6SM VCSH FEW020 SCT030 SCT250
     FM141400 11010KT P6SM SCT025
     FM150300 10004KT P6SM SCT035
     FM151200 09011KT P6SM SCT025=